Time;durP1;ratioP1;P1;durP2;ratioP2;P2;SDS_P1;SDS_P2;PMS_P1;PMS_P2;Temp;Humidity;BMP_temperature;BMP_pressure;BME280_temperature;BME280_humidity;BME280_pressure;Samples;Min_cycle;Max_cycle;Signal;HPM_P1;HPM_P2
2022/08/28 00:00:39;;;;;;;4.35;1.10;;;;;;;24.36;40.44;100896.97;4984783;28;20109;-73
2022/08/28 00:03:09;;;;;;;2.20;1.05;;;;;;;24.43;38.74;100889.75;4986660;28;20049;-74
2022/08/28 00:05:39;;;;;;;2.30;1.13;;;;;;;24.49;36.80;100896.69;4986128;28;20050;-74
2022/08/28 00:08:11;;;;;;;3.50;1.20;;;;;;;24.70;36.09;100890.84;4987572;28;20050;-75
2022/08/28 00:10:40;;;;;;;7.00;1.38;;;;;;;24.66;35.96;100889.19;4989397;28;20050;-73
2022/08/28 00:13:14;;;;;;;4.53;1.23;;;;;;;24.69;35.93;100886.44;4987335;28;20060;-72
2022/08/28 00:15:43;;;;;;;6.45;1.30;;;;;;;24.70;35.94;100885.56;4982360;28;20125;-74
2022/08/28 00:18:12;;;;;;;4.18;1.13;;;;;;;24.69;35.74;100875.88;4985530;28;20045;-76
2022/08/28 00:20:41;;;;;;;6.80;1.10;;;;;;;24.64;36.97;100881.28;4997094;28;20046;-74
2022/08/28 00:23:11;;;;;;;3.88;1.02;;;;;;;24.72;36.25;100867.88;4995348;28;20128;-74
2022/08/28 00:25:40;;;;;;;10.70;2.50;;;;;;;24.87;37.77;100878.00;4986865;28;20058;-76
2022/08/28 00:28:17;;;;;;;4.40;1.25;;;;;;;24.88;36.96;100879.75;4985052;28;20101;-73
2022/08/28 00:30:48;;;;;;;5.38;1.40;;;;;;;24.90;36.34;100869.16;4987149;28;20421;-75
2022/08/28 00:33:20;;;;;;;2.25;1.13;;;;;;;24.99;37.53;100873.28;4985536;28;20111;-74
2022/08/28 00:35:49;;;;;;;3.65;1.30;;;;;;;25.04;37.52;100868.75;4987273;28;20488;-76
2022/08/28 00:38:21;;;;;;;5.78;1.17;;;;;;;25.11;36.80;100872.09;4990165;28;20051;-74
2022/08/28 00:40:53;;;;;;;10.52;1.90;;;;;;;25.14;36.74;100869.34;4982594;28;20141;-75
2022/08/28 00:43:42;;;;;;;5.60;1.13;;;;;;;25.22;35.96;100868.25;4989157;28;20164;-74
2022/08/28 00:46:12;;;;;;;10.52;1.27;;;;;;;25.18;35.56;100866.59;4988877;28;20046;-75
2022/08/28 00:48:42;;;;;;;5.20;1.42;;;;;;;25.16;35.65;100867.53;4984893;28;20046;-75
2022/08/28 00:54:00;;;;;;;5.22;1.42;;;;;;;25.04;36.13;100861.66;4984330;28;20057;-73
2022/08/28 00:56:30;;;;;;;3.83;1.40;;;;;;;24.95;35.78;100864.56;4981057;28;20047;-75
2022/08/28 00:59:04;;;;;;;7.15;1.73;;;;;;;24.96;35.88;100854.84;4986076;28;20280;-76
2022/08/28 01:01:32;;;;;;;5.90;1.38;;;;;;;24.93;36.68;100860.25;4987044;28;20046;-74
2022/08/28 01:04:01;;;;;;;4.18;1.30;;;;;;;24.83;36.14;100857.84;4983551;28;20050;-74
2022/08/28 01:06:29;;;;;;;11.38;2.22;;;;;;;24.82;35.63;100855.25;4982468;28;20112;-74
2022/08/28 01:09:00;;;;;;;5.85;1.40;;;;;;;24.75;36.09;100862.47;4985620;28;20473;-73
2022/08/28 01:11:29;;;;;;;5.95;1.20;;;;;;;24.58;36.67;100864.69;4984357;28;20061;-72
2022/08/28 01:14:01;;;;;;;3.78;1.15;;;;;;;24.48;36.87;100857.94;4986593;28;20096;-73
2022/08/28 01:16:30;;;;;;;4.90;1.63;;;;;;;24.41;37.00;100855.41;4981914;28;20097;-73
2022/08/28 01:19:00;;;;;;;8.95;1.42;;;;;;;24.34;37.01;100866.19;4984892;28;20456;-73
2022/08/28 01:21:33;;;;;;;8.30;1.45;;;;;;;24.28;38.07;100861.94;4987060;28;20500;-73
2022/08/28 01:24:08;;;;;;;8.18;1.27;;;;;;;24.27;37.96;100865.50;4983442;28;20046;-72
2022/08/28 01:26:37;;;;;;;10.90;1.52;;;;;;;24.25;37.40;100856.72;4985444;28;20051;-75
2022/08/28 01:29:07;;;;;;;9.38;1.60;;;;;;;24.26;38.43;100858.47;4982192;28;20045;-75
2022/08/28 01:31:36;;;;;;;7.25;1.33;;;;;;;24.30;38.18;100865.41;4982432;28;20429;-74
2022/08/28 01:34:06;;;;;;;10.70;1.77;;;;;;;24.33;37.96;100862.69;4986268;28;20048;-74
2022/08/28 01:36:35;;;;;;;3.35;1.48;;;;;;;24.37;38.11;100863.47;4980992;28;20468;-76
2022/08/28 01:39:09;;;;;;;6.22;1.30;;;;;;;24.34;38.03;100856.50;4982347;28;20477;-73
2022/08/28 01:41:40;;;;;;;7.03;2.20;;;;;;;24.37;38.01;100872.28;4982637;28;20504;-75
2022/08/28 01:44:09;;;;;;;6.53;1.92;;;;;;;24.34;37.92;100866.19;4981998;28;20046;-76
2022/08/28 01:46:38;;;;;;;9.35;2.78;;;;;;;24.26;38.45;100869.06;4985971;28;20452;-73
2022/08/28 01:49:10;;;;;;;9.52;2.10;;;;;;;24.18;39.82;100855.16;4985008;28;20048;-73
2022/08/28 01:51:39;;;;;;;10.05;2.75;;;;;;;24.15;40.23;100858.75;4986349;28;20133;-74
2022/08/28 01:54:10;;;;;;;4.75;1.40;;;;;;;24.12;39.04;100855.28;4989244;28;20141;-72
2022/08/28 01:56:42;;;;;;;3.00;1.15;;;;;;;24.01;38.41;100869.66;4984598;28;20047;-76
2022/08/28 01:59:13;;;;;;;3.05;0.90;;;;;;;23.92;37.35;100866.38;4988874;28;20054;-75
2022/08/28 02:01:43;;;;;;;1.75;1.00;;;;;;;23.87;38.28;100871.78;4989980;28;20652;-74
2022/08/28 02:04:12;;;;;;;2.05;0.80;;;;;;;23.83;37.42;100859.53;4988922;28;20073;-74
2022/08/28 02:06:41;;;;;;;2.40;0.88;;;;;;;23.81;38.22;100875.41;4991304;28;20141;-76
2022/08/28 02:09:12;;;;;;;2.63;0.90;;;;;;;23.77;38.10;100864.94;4989109;28;20076;-75
2022/08/28 02:11:41;;;;;;;2.13;1.10;;;;;;;23.72;38.63;100872.09;4986972;28;20453;-74
2022/08/28 02:14:10;;;;;;;3.10;0.80;;;;;;;23.61;38.11;100859.97;4985127;28;20057;-75
2022/08/28 02:16:39;;;;;;;3.33;1.52;;;;;;;23.52;37.99;100862.81;4979801;28;20073;-74
2022/08/28 02:19:07;;;;;;;3.33;1.00;;;;;;;23.46;38.95;100862.13;4985908;28;20117;-73
2022/08/28 02:21:36;;;;;;;5.80;1.30;;;;;;;23.39;39.42;100864.03;4987854;28;20436;-73
2022/08/28 02:24:05;;;;;;;2.60;1.05;;;;;;;23.33;39.21;100861.50;4988947;28;20069;-74
2022/08/28 02:26:35;;;;;;;3.08;0.77;;;;;;;23.28;37.85;100866.03;4984554;28;20142;-72
2022/08/28 02:29:04;;;;;;;3.33;1.00;;;;;;;23.23;38.78;100867.88;4990892;28;20056;-73
2022/08/28 02:31:33;;;;;;;5.18;1.00;;;;;;;23.11;39.04;100859.34;4989000;28;20050;-72
2022/08/28 02:34:02;;;;;;;4.47;1.10;;;;;;;23.07;38.80;100865.56;4984083;28;20636;-73
2022/08/28 02:36:31;;;;;;;3.28;1.10;;;;;;;22.95;39.35;100866.66;4989525;28;20054;-72
2022/08/28 02:38:59;;;;;;;5.72;1.23;;;;;;;22.86;39.22;100868.59;4994014;28;20093;-72
2022/08/28 02:41:28;;;;;;;2.42;0.88;;;;;;;22.75;39.21;100874.97;4987455;28;21000;-73
2022/08/28 02:43:58;;;;;;;3.35;1.02;;;;;;;22.68;39.81;100870.69;4988469;28;20073;-76
2022/08/28 02:46:27;;;;;;;3.28;1.05;;;;;;;22.53;40.01;100868.34;4989519;28;20135;-75
2022/08/28 02:48:55;;;;;;;6.82;1.10;;;;;;;22.44;40.51;100868.50;4987364;28;20070;-77
2022/08/28 02:51:24;;;;;;;2.97;1.10;;;;;;;22.33;40.57;100872.22;4988544;28;20058;-78
2022/08/28 02:53:53;;;;;;;5.85;1.58;;;;;;;22.27;41.33;100874.09;4986654;28;20412;-79
2022/08/28 02:56:21;;;;;;;2.45;1.17;;;;;;;22.19;40.57;100874.16;4986024;28;20484;-77
2022/08/28 02:58:50;;;;;;;5.72;1.30;;;;;;;22.09;40.81;100880.47;4982151;28;20132;-74
2022/08/28 03:01:20;;;;;;;2.95;0.80;;;;;;;22.00;41.60;100885.91;4984578;28;20057;-78
2022/08/28 03:03:55;;;;;;;6.88;1.42;;;;;;;21.89;41.25;100884.28;4987946;28;20510;-77
2022/08/28 03:06:23;;;;;;;4.10;1.50;;;;;;;21.82;42.00;100889.69;4992145;28;20054;-80
2022/08/28 03:08:52;;;;;;;4.53;1.20;;;;;;;21.72;41.54;100896.84;4993897;28;20058;-79
2022/08/28 03:11:21;;;;;;;3.08;1.00;;;;;;;21.59;41.78;100892.66;4989979;28;20061;-84
2022/08/28 03:13:56;;;;;;;5.43;1.10;;;;;;;21.52;42.34;100908.50;4990663;28;20099;-79
2022/08/28 03:16:26;;;;;;;3.45;1.35;;;;;;;21.46;41.84;100910.34;4985288;28;20050;-81
2022/08/28 03:18:55;;;;;;;7.40;1.13;;;;;;;21.39;42.61;100898.13;4990885;28;20057;-79
2022/08/28 03:21:23;;;;;;;4.22;0.90;;;;;;;21.29;42.37;100913.19;4993920;28;20120;-80
2022/08/28 03:23:52;;;;;;;2.22;0.73;;;;;;;21.24;42.12;100920.25;4988962;28;20066;-79
2022/08/28 03:26:22;;;;;;;3.95;1.13;;;;;;;21.19;42.12;100922.06;4992913;28;20046;-79
2022/08/28 03:28:54;;;;;;;3.10;1.05;;;;;;;21.10;42.27;100926.56;4988069;28;20291;-79
2022/08/28 03:31:25;;;;;;;5.40;1.42;;;;;;;21.02;42.33;100925.75;4987330;28;20069;-81
2022/08/28 03:33:56;;;;;;;3.45;1.02;;;;;;;20.96;42.89;100925.84;4991444;28;20473;-80
2022/08/28 03:36:26;;;;;;;6.18;1.10;;;;;;;20.89;42.55;100929.41;4992067;28;20058;-74
2022/08/28 03:38:56;;;;;;;4.95;1.27;;;;;;;20.83;42.61;100934.75;4988619;28;20050;-81
2022/08/28 03:41:27;;;;;;;4.38;1.15;;;;;;;20.65;42.83;100931.38;4984297;28;20065;-80
2022/08/28 03:43:57;;;;;;;7.75;1.65;;;;;;;20.57;43.12;100938.50;4984669;28;20061;-76
2022/08/28 03:46:26;;;;;;;3.03;1.02;;;;;;;20.54;43.26;100946.34;4993502;28;20100;-79
2022/08/28 03:48:57;;;;;;;4.57;1.10;;;;;;;20.49;43.80;100951.66;4984300;28;20054;-75
2022/08/28 03:51:28;;;;;;;4.15;1.10;;;;;;;20.44;43.29;100949.94;4989420;28;20121;-73
2022/08/28 03:53:58;;;;;;;3.67;1.17;;;;;;;20.34;43.37;100949.16;4984465;28;20061;-76
2022/08/28 03:56:28;;;;;;;6.78;1.10;;;;;;;20.28;43.70;100955.31;4991638;28;20061;-76
2022/08/28 03:58:59;;;;;;;4.32;1.13;;;;;;;20.16;43.95;100955.41;4983286;28;20516;-77
2022/08/28 04:01:28;;;;;;;6.00;1.20;;;;;;;20.15;44.75;100960.66;4986522;28;21240;-74
2022/08/28 04:03:58;;;;;;;5.65;1.08;;;;;;;20.13;44.79;100973.81;4987348;28;20587;-73
2022/08/28 04:06:28;;;;;;;7.85;2.10;;;;;;;20.10;45.30;100968.59;4985884;28;20050;-74
2022/08/28 04:08:58;;;;;;;5.20;1.30;;;;;;;20.07;45.59;100979.13;4980560;28;20483;-74
2022/08/28 04:11:26;;;;;;;4.60;1.20;;;;;;;20.01;45.64;100976.53;4985978;28;20085;-76
2022/08/28 04:13:55;;;;;;;4.28;1.20;;;;;;;19.86;46.23;100980.13;4987110;28;20077;-80
2022/08/28 04:16:23;;;;;;;5.60;1.08;;;;;;;19.82;46.70;100988.88;4985474;28;20095;-78
2022/08/28 04:18:52;;;;;;;3.60;1.13;;;;;;;19.77;46.76;100974.88;4985380;28;20069;-79
2022/08/28 04:21:24;;;;;;;8.70;1.40;;;;;;;19.75;46.57;100997.69;4988464;28;20042;-80
2022/08/28 04:23:53;;;;;;;7.15;1.35;;;;;;;19.69;47.03;100985.44;4983599;28;20078;-79
2022/08/28 04:26:24;;;;;;;6.15;1.30;;;;;;;19.64;46.90;100989.81;4985935;28;20113;-76
2022/08/28 04:28:54;;;;;;;3.58;1.40;;;;;;;19.55;47.09;100995.09;4992295;28;20053;-77
2022/08/28 04:31:22;;;;;;;2.35;1.10;;;;;;;19.53;47.67;100996.84;4988416;28;20075;-80
2022/08/28 04:33:51;;;;;;;3.45;1.20;;;;;;;19.53;47.59;100997.72;4991915;28;20045;-78
2022/08/28 04:36:21;;;;;;;5.10;1.50;;;;;;;19.52;47.40;101005.59;4991392;28;20104;-80
2022/08/28 04:38:50;;;;;;;2.75;1.25;;;;;;;19.50;47.40;101005.59;4987856;28;20069;-81
2022/08/28 04:41:18;;;;;;;5.97;1.35;;;;;;;19.45;47.66;101010.88;4987208;28;20050;-77
2022/08/28 04:43:47;;;;;;;3.20;1.52;;;;;;;19.45;47.77;101002.13;4988605;28;20069;-78
2022/08/28 04:46:16;;;;;;;5.18;1.70;;;;;;;19.44;47.55;101003.00;4988387;28;20058;-80
2022/08/28 04:48:45;;;;;;;8.68;1.60;;;;;;;19.43;47.40;101009.13;4986080;28;20038;-80
2022/08/28 04:51:14;;;;;;;4.45;1.70;;;;;;;19.36;47.45;101005.66;4998003;28;20077;-78
2022/08/28 04:53:45;;;;;;;3.53;1.27;;;;;;;19.30;47.87;101005.66;4991665;28;20153;-79
2022/08/28 04:56:14;;;;;;;4.93;1.17;;;;;;;19.23;47.91;101001.31;4990657;28;20046;-75
2022/08/28 04:58:44;;;;;;;5.30;1.40;;;;;;;19.20;47.83;101003.94;4989025;28;20042;-77
2022/08/28 05:01:17;;;;;;;3.53;1.33;;;;;;;19.18;48.64;101008.31;4988825;28;20488;-78
2022/08/28 05:03:45;;;;;;;3.30;1.15;;;;;;;19.13;48.38;100997.84;4986051;28;20050;-79
2022/08/28 05:06:15;;;;;;;6.45;1.38;;;;;;;19.09;48.61;101003.94;4993171;28;20109;-77
2022/08/28 05:08:45;;;;;;;4.60;1.40;;;;;;;19.09;48.47;101005.72;4991534;28;20045;-77
2022/08/28 05:11:20;;;;;;;5.78;1.70;;;;;;;19.03;48.58;100996.97;4998603;28;20046;-80
2022/08/28 05:13:49;;;;;;;5.47;1.40;;;;;;;18.97;48.78;100996.13;4989583;28;20472;-78
2022/08/28 05:16:18;;;;;;;2.78;0.90;;;;;;;18.97;48.45;100996.97;4982654;28;20050;-77
2022/08/28 05:18:48;;;;;;;2.60;1.05;;;;;;;18.89;48.78;100998.72;4986325;28;20684;-79
2022/08/28 05:21:20;;;;;;;3.30;1.50;;;;;;;18.85;48.82;101002.22;4989489;28;20077;-81
2022/08/28 05:23:51;;;;;;;9.30;1.55;;;;;;;18.83;49.15;101004.00;4988684;28;20137;-76
2022/08/28 05:26:20;;;;;;;3.80;1.17;;;;;;;18.81;49.52;100995.25;4988063;28;20532;-80
2022/08/28 05:28:49;;;;;;;3.53;1.50;;;;;;;18.76;49.35;100989.97;4989644;28;20097;-78
2022/08/28 05:31:19;;;;;;;5.57;1.55;;;;;;;18.75;49.42;101000.44;4992501;28;20536;-79
2022/08/28 05:33:50;;;;;;;3.90;1.20;;;;;;;18.73;49.16;100996.94;4993179;28;20052;-80
2022/08/28 05:36:20;;;;;;;6.00;1.27;;;;;;;18.71;49.15;100998.69;4991800;28;20061;-81
2022/08/28 05:38:51;;;;;;;3.50;1.38;;;;;;;18.68;49.63;100993.47;4988775;28;20125;-77
2022/08/28 05:41:21;;;;;;;2.92;1.23;;;;;;;18.67;49.40;100995.22;4988598;28;20465;-79
2022/08/28 05:43:50;;;;;;;5.65;1.52;;;;;;;18.67;49.46;100991.69;4984568;28;20057;-77
2022/08/28 05:46:19;;;;;;;3.95;1.40;;;;;;;18.66;49.73;100989.97;4989457;28;20046;-78
2022/08/28 05:48:48;;;;;;;5.07;1.42;;;;;;;18.64;49.83;100995.19;4989057;28;20540;-78
2022/08/28 05:51:18;;;;;;;3.55;1.48;;;;;;;18.58;49.61;100990.84;4989216;28;20128;-80
2022/08/28 05:53:48;;;;;;;4.50;1.60;;;;;;;18.54;49.78;100991.72;4991971;28;20053;-77
2022/08/28 05:56:21;;;;;;;5.15;1.55;;;;;;;18.46;50.65;101000.44;4989685;28;20104;-76
2022/08/28 05:58:50;;;;;;;4.05;1.02;;;;;;;18.40;50.67;100999.56;4992400;28;20500;-75
2022/08/28 06:01:20;;;;;;;4.80;1.25;;;;;;;18.37;50.67;101007.44;4990473;28;20046;-81
2022/08/28 06:03:54;;;;;;;5.13;1.45;;;;;;;18.36;51.05;101007.41;4989491;28;20054;-79
2022/08/28 06:06:23;;;;;;;7.35;1.52;;;;;;;18.32;51.62;101003.91;4988338;28;20088;-80
2022/08/28 06:08:52;;;;;;;4.95;1.17;;;;;;;18.32;51.49;101016.13;4991664;28;20043;-82
2022/08/28 06:11:23;;;;;;;5.60;1.60;;;;;;;18.27;51.84;101007.41;4993116;28;20050;-75
2022/08/28 06:13:51;;;;;;;4.43;1.40;;;;;;;18.21;51.91;101001.28;4993034;28;20054;-75
2022/08/28 06:16:20;;;;;;;6.25;1.40;;;;;;;18.19;52.51;100995.16;4989453;28;20054;-76
2022/08/28 06:18:49;;;;;;;3.95;1.50;;;;;;;18.14;52.15;101010.00;4984998;28;20101;-75
2022/08/28 06:21:18;;;;;;;5.15;1.48;;;;;;;18.08;52.95;101001.25;4993230;28;20047;-75
2022/08/28 06:23:47;;;;;;;8.32;1.58;;;;;;;18.03;52.74;101002.97;4990684;28;20050;-76
2022/08/28 06:26:15;;;;;;;3.88;1.10;;;;;;;17.97;52.83;101003.84;4988149;28;20061;-76
2022/08/28 06:28:45;;;;;;;3.72;1.40;;;;;;;17.94;53.11;101003.84;4986061;28;20466;-76
2022/08/28 06:31:14;;;;;;;2.63;1.27;;;;;;;17.88;53.49;100996.81;4991172;28;20471;-77
2022/08/28 06:33:44;;;;;;;5.68;1.30;;;;;;;17.85;52.71;101006.44;4989458;28;20046;-76
2022/08/28 06:36:13;;;;;;;4.15;1.70;;;;;;;17.83;52.76;101003.78;4986947;28;20075;-75
2022/08/28 06:38:45;;;;;;;8.48;1.50;;;;;;;17.77;53.43;101002.00;4983881;28;20597;-76
2022/08/28 06:41:14;;;;;;;5.03;1.50;;;;;;;17.72;53.55;100997.59;4991579;28;20050;-76
2022/08/28 06:43:43;;;;;;;5.00;1.45;;;;;;;17.66;53.34;100998.47;4986533;28;20131;-75
2022/08/28 06:46:13;;;;;;;6.25;1.45;;;;;;;17.60;53.45;100993.19;4960065;28;20411;-80
2022/08/28 06:48:42;;;;;;;6.50;1.58;;;;;;;17.56;54.26;101001.91;4971529;28;20046;-77
2022/08/28 06:51:13;;;;;;;3.03;1.15;;;;;;;17.48;54.66;100995.78;4964051;28;20057;-76
2022/08/28 06:53:43;;;;;;;2.80;1.23;;;;;;;17.48;54.46;101014.94;4969698;28;20493;-76
2022/08/28 06:56:13;;;;;;;5.88;1.52;;;;;;;17.43;54.72;101003.59;4967481;28;20059;-75
2022/08/28 06:58:44;;;;;;;5.28;1.70;;;;;;;17.43;54.28;101010.53;4962973;28;20051;-76
2022/08/28 07:01:17;;;;;;;3.80;1.45;;;;;;;17.41;54.52;101004.44;4965202;28;20046;-76
2022/08/28 07:03:46;;;;;;;1.98;0.98;;;;;;;17.38;54.86;101002.66;4968417;28;20105;-74
2022/08/28 07:06:16;;;;;;;2.85;1.02;;;;;;;17.34;56.06;101001.78;4968914;28;20415;-75
2022/08/28 07:08:45;;;;;;;4.50;1.05;;;;;;;17.25;55.44;101000.84;4976616;28;20042;-75
2022/08/28 07:11:16;;;;;;;5.03;1.48;;;;;;;17.23;56.17;101013.94;4977224;28;20496;-75
2022/08/28 07:13:45;;;;;;;6.07;1.33;;;;;;;17.08;56.60;100998.13;4970901;28;20039;-74
2022/08/28 07:16:18;;;;;;;4.63;1.60;;;;;;;17.06;56.25;101010.31;4964167;28;20442;-74
2022/08/28 07:18:47;;;;;;;4.28;1.45;;;;;;;16.98;57.50;100997.19;4969457;28;20046;-74
2022/08/28 07:21:16;;;;;;;3.72;1.52;;;;;;;16.96;57.40;101014.63;4971175;28;20049;-74
2022/08/28 07:23:45;;;;;;;5.07;1.33;;;;;;;16.81;57.79;101004.91;4967147;28;20047;-74
2022/08/28 07:26:16;;;;;;;3.13;1.35;;;;;;;16.76;58.43;101006.56;4963664;28;20066;-75
2022/08/28 07:28:44;;;;;;;1.75;1.10;;;;;;;16.77;58.54;101013.56;4967205;28;20046;-76
2022/08/28 07:31:17;;;;;;;2.15;1.33;;;;;;;16.76;58.59;101001.34;4961841;28;20410;-76
2022/08/28 07:33:46;;;;;;;6.63;1.48;;;;;;;16.78;58.53;101012.69;4966738;28;20395;-73
2022/08/28 07:36:17;;;;;;;3.22;1.38;;;;;;;16.74;58.74;101009.19;4967025;28;20039;-75
2022/08/28 07:38:46;;;;;;;2.58;1.20;;;;;;;16.72;58.71;101016.16;4961713;28;20051;-74
2022/08/28 07:41:16;;;;;;;3.28;1.40;;;;;;;16.74;58.88;101014.44;4967783;28;20046;-75
2022/08/28 07:46:33;;;;;;;5.03;1.30;;;;;;;16.64;58.85;101001.25;4985386;28;20065;-76
2022/08/28 07:49:01;;;;;;;4.97;1.50;;;;;;;16.61;58.84;100998.63;4988348;28;20061;-76
2022/08/28 07:51:30;;;;;;;5.07;1.23;;;;;;;16.58;59.25;100995.97;4987984;28;20042;-77
2022/08/28 07:54:00;;;;;;;7.20;1.63;;;;;;;16.59;59.17;101000.34;4989422;28;20062;-76
2022/08/28 07:56:29;;;;;;;4.63;1.63;;;;;;;16.55;58.27;100995.06;4980490;28;20104;-75
2022/08/28 07:58:58;;;;;;;2.38;1.02;;;;;;;16.51;59.13;101003.75;4982922;28;20054;-75
2022/08/28 08:01:28;;;;;;;5.95;1.48;;;;;;;16.50;59.72;100999.41;4985014;28;20061;-75
2022/08/28 08:03:58;;;;;;;3.65;1.45;;;;;;;16.47;60.19;101004.59;4987701;28;20070;-76
2022/08/28 08:06:30;;;;;;;4.13;1.27;;;;;;;16.42;60.06;101005.41;4986592;28;20101;-74
2022/08/28 08:08:59;;;;;;;3.58;1.30;;;;;;;16.39;60.39;101011.47;4989914;28;20046;-74
2022/08/28 08:11:27;;;;;;;2.15;1.13;;;;;;;16.35;61.28;101009.69;4979029;28;20046;-74
2022/08/28 08:13:56;;;;;;;5.78;1.50;;;;;;;16.25;61.89;101011.34;4988253;28;20077;-73
2022/08/28 08:16:26;;;;;;;3.63;1.38;;;;;;;16.25;62.02;101013.09;4985036;28;20109;-76
2022/08/28 08:18:55;;;;;;;2.90;1.75;;;;;;;16.19;62.45;101013.88;4985694;28;20049;-76
2022/08/28 08:21:25;;;;;;;1.38;1.13;;;;;;;16.20;61.86;101014.78;4986593;28;20125;-76
2022/08/28 08:23:54;;;;;;;5.82;1.52;;;;;;;16.18;61.95;101008.66;4985861;28;20566;-74
2022/08/28 08:26:26;;;;;;;6.38;1.50;;;;;;;16.17;62.45;101009.50;4983312;28;20134;-76
2022/08/28 08:28:55;;;;;;;2.85;1.27;;;;;;;16.12;62.42;101012.06;4984219;28;20046;-75
2022/08/28 08:31:26;;;;;;;5.63;1.70;;;;;;;16.11;62.39;101011.19;4983364;28;20050;-75
2022/08/28 08:33:58;;;;;;;3.97;1.77;;;;;;;16.11;63.04;101013.81;4984080;28;20643;-75
2022/08/28 08:36:29;;;;;;;6.15;1.52;;;;;;;16.08;62.75;101011.16;4982836;28;20132;-74
2022/08/28 08:38:59;;;;;;;4.20;1.10;;;;;;;16.06;63.71;101017.25;4986039;28;20088;-75
2022/08/28 08:41:32;;;;;;;1.63;1.33;;;;;;;16.04;63.93;101017.22;4984660;28;20050;-74
2022/08/28 08:44:08;;;;;;;8.88;1.70;;;;;;;16.01;64.19;101018.91;4983499;28;20054;-75
2022/08/28 08:46:42;;;;;;;5.18;1.50;;;;;;;15.98;64.54;101016.25;4966735;28;20047;-75
2022/08/28 08:49:15;;;;;;;2.88;1.38;;;;;;;15.97;64.10;101019.75;4965661;28;20099;-76
2022/08/28 08:51:48;;;;;;;3.83;1.20;;;;;;;15.95;63.83;101011.88;4968431;28;20042;-75
2022/08/28 08:54:20;;;;;;;5.38;1.40;;;;;;;15.94;64.34;101011.84;4957922;28;20110;-76
2022/08/28 08:56:49;;;;;;;3.10;1.50;;;;;;;15.86;65.41;101006.56;4960654;28;20070;-75
2022/08/28 08:59:22;;;;;;;4.03;1.40;;;;;;;15.82;65.38;101015.19;4965707;28;20054;-74
2022/08/28 09:01:54;;;;;;;;;;;;;;;15.81;65.16;101016.94;4969068;28;20469;-76
2022/08/28 09:04:33;;;;;;;2.92;1.27;;;;;;;15.79;64.68;101010.81;4965253;28;20428;-77
2022/08/28 09:07:14;;;;;;;2.38;1.40;;;;;;;15.80;64.62;101016.91;4962964;28;20054;-77
2022/08/28 09:09:47;;;;;;;6.95;1.20;;;;;;;15.76;64.39;101017.72;4968392;28;20078;-75
2022/08/28 09:12:21;;;;;;;5.55;1.52;;;;;;;15.77;64.93;101014.28;4966085;28;20109;-75
2022/08/28 09:15:03;;;;;;;4.22;1.45;;;;;;;15.77;64.03;101009.94;4967031;28;20798;-75
2022/08/28 09:17:36;;;;;;;4.35;1.35;;;;;;;15.74;64.86;101015.13;4964729;28;20054;-75
2022/08/28 09:20:07;;;;;;;2.38;1.23;;;;;;;15.64;64.55;101003.63;4961797;28;20051;-78
2022/08/28 09:22:38;;;;;;;5.15;1.13;;;;;;;15.64;65.10;101011.47;4967870;28;20043;-77
2022/08/28 09:25:10;;;;;;;3.38;1.38;;;;;;;15.61;65.03;101001.00;4963097;28;20175;-74
2022/08/28 09:27:46;;;;;;;3.67;1.50;;;;;;;15.59;65.80;100994.00;4966773;28;20493;-75
2022/08/28 09:30:16;;;;;;;4.28;1.60;;;;;;;15.58;66.19;100998.38;4964259;28;20043;-75
2022/08/28 09:32:59;;;;;;;6.00;1.27;;;;;;;15.60;65.90;100999.25;4965824;28;20395;-74
2022/08/28 09:35:30;;;;;;;4.38;1.45;;;;;;;15.57;66.01;100996.59;4963414;28;20055;-77
2022/08/28 09:38:19;;;;;;;3.17;1.30;;;;;;;15.56;66.64;100997.47;4972437;28;20058;-75
2022/08/28 09:43:36;;;;;;;4.55;1.40;;;;;;;15.55;67.15;100998.31;4964218;28;20117;-74
2022/08/28 09:46:07;;;;;;;3.83;1.58;;;;;;;15.56;67.36;101004.41;4964568;28;20054;-76
2022/08/28 09:48:37;;;;;;;2.60;1.25;;;;;;;15.55;66.91;101003.53;4971178;28;20140;-76
2022/08/28 09:51:07;;;;;;;4.15;1.55;;;;;;;15.56;66.63;101005.28;4966971;28;20105;-75
2022/08/28 09:53:43;;;;;;;3.58;1.30;;;;;;;15.55;66.42;101005.25;4971604;28;20058;-76
2022/08/28 09:56:16;;;;;;;5.82;1.23;;;;;;;15.53;67.18;101006.97;4968895;28;20059;-74
2022/08/28 09:58:46;;;;;;;3.38;1.33;;;;;;;15.50;68.13;101013.88;4973186;28;20047;-75
2022/08/28 10:01:46;;;;;;;2.10;1.25;;;;;;;15.45;68.37;101015.56;4973167;28;20055;-75
2022/08/28 10:04:27;;;;;;;2.25;1.20;;;;;;;15.39;68.62;101012.00;4965903;28;20556;-74
2022/08/28 10:07:00;;;;;;;3.50;1.02;;;;;;;15.37;69.27;101011.09;4967189;28;20051;-74
2022/08/28 10:09:35;;;;;;;2.53;1.13;;;;;;;15.33;69.14;101011.94;4966168;28;20431;-74
2022/08/28 10:12:16;;;;;;;2.38;1.38;;;;;;;15.30;68.57;101012.75;4972811;28;20053;-74
2022/08/28 10:14:54;;;;;;;4.88;1.58;;;;;;;15.31;68.34;101011.03;4974365;28;20489;-75
2022/08/28 10:17:32;;;;;;;2.22;1.08;;;;;;;15.33;67.97;101012.81;4977580;28;20047;-76
2022/08/28 10:20:12;;;;;;;6.22;1.55;;;;;;;15.35;67.80;101010.22;4972209;28;20560;-75
2022/08/28 10:22:49;;;;;;;3.13;1.60;;;;;;;15.37;68.06;101003.28;4975037;28;20493;-76
2022/08/28 10:25:27;;;;;;;3.47;1.75;;;;;;;15.38;68.53;101000.69;4972369;28;20101;-76
2022/08/28 10:28:18;;;;;;;3.13;1.88;;;;;;;15.36;68.40;100991.97;4973159;28;20050;-75
2022/08/28 10:30:56;;;;;;;4.03;1.40;;;;;;;15.36;68.96;100991.97;4968475;28;20049;-76
2022/08/28 10:33:40;;;;;;;2.75;1.25;;;;;;;15.35;68.52;100987.63;4967689;28;20613;-75
2022/08/28 10:36:13;;;;;;;2.22;1.20;;;;;;;15.32;68.64;100978.88;4972206;28;20042;-76
2022/08/28 10:38:48;;;;;;;4.50;1.13;;;;;;;15.29;69.35;100980.59;4970652;28;20050;-76
2022/08/28 10:41:23;;;;;;;2.33;1.30;;;;;;;15.26;69.90;100983.16;4972462;28;20587;-76
2022/08/28 10:43:53;;;;;;;4.78;1.20;;;;;;;15.21;69.78;100983.94;4971657;28;20054;-75
2022/08/28 10:46:24;;;;;;;3.55;1.35;;;;;;;15.19;70.28;100976.13;4965907;28;20102;-76
2022/08/28 10:49:01;;;;;;;3.58;2.20;;;;;;;15.16;71.39;100973.44;4968370;28;20640;-78
2022/08/28 10:51:36;;;;;;;4.57;1.42;;;;;;;15.14;70.83;100972.56;4969219;28;20527;-75
2022/08/28 10:54:11;;;;;;;6.50;1.40;;;;;;;15.11;69.66;100964.69;4968789;28;20406;-77
2022/08/28 10:56:48;;;;;;;7.60;1.70;;;;;;;15.10;70.40;100968.16;4968158;28;20051;-77
2022/08/28 10:59:17;;;;;;;4.60;1.77;;;;;;;15.04;69.76;100958.50;4967373;28;20133;-78
2022/08/28 11:01:47;;;;;;;5.95;1.40;;;;;;;15.02;70.88;100964.56;4970382;28;20433;-75
2022/08/28 11:04:20;;;;;;;4.97;1.30;;;;;;;14.97;70.63;100966.22;4966299;28;20042;-77
2022/08/28 11:06:53;;;;;;;3.47;1.63;;;;;;;14.95;70.53;100960.97;4970290;28;20173;-77
2022/08/28 11:09:33;;;;;;;9.90;1.45;;;;;;;14.92;72.26;100957.47;4972547;28;20420;-76
2022/08/28 11:12:06;;;;;;;6.05;1.58;;;;;;;14.83;71.90;100953.88;4971970;28;20433;-77
2022/08/28 11:14:37;;;;;;;6.13;1.55;;;;;;;14.81;72.35;100958.16;4961419;28;20050;-76
2022/08/28 11:17:08;;;;;;;5.10;1.52;;;;;;;14.76;71.91;100956.34;4964124;28;20043;-77
2022/08/28 11:20:00;;;;;;;5.15;1.20;;;;;;;14.74;72.07;100969.34;4968728;28;20065;-77
2022/08/28 11:22:31;;;;;;;4.25;1.20;;;;;;;14.71;72.50;100971.91;4964578;28;20554;-76
2022/08/28 11:25:08;;;;;;;5.45;1.15;;;;;;;14.67;72.20;100972.72;4966181;28;20134;-74
2022/08/28 11:27:39;;;;;;;6.82;1.73;;;;;;;14.64;73.10;100972.69;4968975;28;20078;-76
2022/08/28 11:30:31;;;;;;;5.00;1.27;;;;;;;14.62;73.10;100974.38;4965216;28;20042;-76
2022/08/28 11:33:03;;;;;;;1.80;1.20;;;;;;;14.59;73.29;100976.91;4970047;28;20058;-78
2022/08/28 11:35:50;;;;;;;5.30;1.23;;;;;;;14.52;73.00;100972.41;4966055;28;20051;-76
2022/08/28 11:38:55;;;;;;;4.22;1.75;;;;;;;14.59;72.98;100985.63;4966655;28;20051;-76
2022/08/28 11:41:26;;;;;;;2.85;1.20;;;;;;;14.61;72.59;100985.63;4964631;28;20060;-76
2022/08/28 11:44:27;;;;;;;3.65;1.50;;;;;;;14.61;72.82;100985.63;4974970;28;20445;-76
2022/08/28 11:47:16;;;;;;;3.47;1.20;;;;;;;14.61;72.64;100983.00;4968440;28;20489;-76
2022/08/28 11:49:46;;;;;;;1.60;1.08;;;;;;;14.56;72.38;100980.34;4967378;28;20091;-75
2022/08/28 11:52:36;;;;;;;1.00;0.90;;;;;;;14.52;73.41;100988.03;4965183;28;20501;-76